createdAt,value
2023-11-09T00:00:54.158Z,0.98
2023-11-09T00:03:21.803Z,0.60
2023-11-09T00:05:51.035Z,0.90
2023-11-09T00:08:19.047Z,0.68
2023-11-09T00:10:46.679Z,0.50
2023-11-09T00:13:14.366Z,0.40
2023-11-09T00:15:42.162Z,0.63
2023-11-09T00:18:09.765Z,0.50
2023-11-09T00:20:37.436Z,0.60
2023-11-09T00:23:04.941Z,0.70
2023-11-09T00:25:32.507Z,0.60
2023-11-09T00:28:00.111Z,0.80
2023-11-09T00:30:29.300Z,1.00
2023-11-09T00:32:56.884Z,0.70
2023-11-09T00:35:24.578Z,0.60
2023-11-09T00:37:52.192Z,1.02
2023-11-09T00:40:19.872Z,0.80
2023-11-09T00:42:47.609Z,0.55
2023-11-09T00:45:15.284Z,0.60
2023-11-09T00:47:42.916Z,0.73
2023-11-09T00:50:10.800Z,0.50
2023-11-09T00:52:38.306Z,0.60
2023-11-09T00:55:06.537Z,0.63
2023-11-09T00:57:34.701Z,0.60
2023-11-09T01:00:04.800Z,0.65
2023-11-09T01:02:38.332Z,0.80
2023-11-09T01:05:08.312Z,0.50
2023-11-09T01:07:35.949Z,0.50
2023-11-09T01:10:05.758Z,0.50
2023-11-09T01:12:33.348Z,0.70
2023-11-09T01:15:03.313Z,0.52
2023-11-09T01:17:31.220Z,0.55
2023-11-09T01:19:58.850Z,0.68
2023-11-09T01:22:31.163Z,0.90
2023-11-09T01:24:58.775Z,0.60
2023-11-09T01:27:26.417Z,0.68
2023-11-09T01:29:54.032Z,1.00
2023-11-09T01:32:21.576Z,0.75
2023-11-09T01:34:49.236Z,0.65
2023-11-09T01:37:16.895Z,0.50
2023-11-09T01:39:45.982Z,0.82
2023-11-09T01:42:14.436Z,0.70
2023-11-09T01:44:41.942Z,0.70
2023-11-09T01:47:12.042Z,0.65
2023-11-09T01:49:40.481Z,0.60
2023-11-09T01:52:08.998Z,0.70
2023-11-09T01:54:38.136Z,0.65
2023-11-09T01:57:08.256Z,0.60
2023-11-09T01:59:40.045Z,0.60
2023-11-09T02:02:07.792Z,0.45
2023-11-09T02:04:35.857Z,0.40
2023-11-09T02:07:04.256Z,0.52
2023-11-09T02:09:31.955Z,0.60
2023-11-09T02:11:59.548Z,0.55
2023-11-09T02:14:28.067Z,0.60
2023-11-09T02:16:59.360Z,0.70
2023-11-09T02:19:30.121Z,0.60
2023-11-09T02:21:58.656Z,0.60
2023-11-09T02:24:27.694Z,0.80
2023-11-09T02:26:58.764Z,0.57
2023-11-09T02:29:26.488Z,0.82
2023-11-09T02:31:54.157Z,0.60
2023-11-09T02:34:25.398Z,0.63
2023-11-09T02:36:54.262Z,0.80
2023-11-09T02:39:21.909Z,0.75
2023-11-09T02:41:49.455Z,0.80
2023-11-09T02:44:17.216Z,0.90
2023-11-09T02:46:44.809Z,1.13
2023-11-09T02:49:13.613Z,0.70
2023-11-09T02:51:41.245Z,0.77
2023-11-09T02:54:08.772Z,0.85
2023-11-09T02:56:37.668Z,0.70
2023-11-09T02:59:06.010Z,0.70
2023-11-09T03:01:36.324Z,0.85
2023-11-09T03:04:04.673Z,0.82
2023-11-09T03:06:32.277Z,0.73
2023-11-09T03:09:01.791Z,0.80
2023-11-09T03:11:30.720Z,0.80
2023-11-09T03:13:58.710Z,0.70
2023-11-09T03:16:26.267Z,0.77
2023-11-09T03:18:54.111Z,1.10
2023-11-09T03:21:21.716Z,0.90
2023-11-09T03:23:50.456Z,0.88
2023-11-09T03:26:18.321Z,0.90
2023-11-09T03:28:45.798Z,0.90
2023-11-09T03:31:13.592Z,1.00
2023-11-09T03:33:41.217Z,0.93
2023-11-09T03:36:08.862Z,1.00
2023-11-09T03:38:36.392Z,1.02
2023-11-09T03:41:04.185Z,1.08
2023-11-09T03:43:31.738Z,1.00
2023-11-09T03:46:00.664Z,1.30
2023-11-09T03:48:28.406Z,1.20
2023-11-09T03:50:55.944Z,1.08
2023-11-09T03:53:23.433Z,1.13
2023-11-09T03:55:50.947Z,1.40
2023-11-09T03:58:18.559Z,1.45
2023-11-09T04:00:46.124Z,1.60
2023-11-09T04:03:15.387Z,1.38
2023-11-09T04:05:42.958Z,1.40
2023-11-09T04:08:10.526Z,1.58
2023-11-09T04:10:38.111Z,2.00
2023-11-09T04:13:05.608Z,1.58
2023-11-09T04:15:33.091Z,1.63
2023-11-09T04:18:00.836Z,1.77
2023-11-09T04:20:28.557Z,1.92
2023-11-09T04:22:56.411Z,2.35
2023-11-09T04:25:24.035Z,2.17
2023-11-09T04:27:52.156Z,2.00
2023-11-09T04:30:21.693Z,2.20
2023-11-09T04:32:52.825Z,2.60
2023-11-09T04:35:21.363Z,1.88
2023-11-09T04:37:53.587Z,2.00
2023-11-09T04:40:23.448Z,2.17
2023-11-09T04:42:51.109Z,2.17
2023-11-09T04:45:18.775Z,2.17
2023-11-09T04:47:56.866Z,2.35
2023-11-09T04:50:32.262Z,2.17
2023-11-09T04:53:20.766Z,2.67
2023-11-09T04:56:05.100Z,2.63
2023-11-09T04:58:48.529Z,2.70
2023-11-09T05:01:35.145Z,2.90
2023-11-09T05:04:22.215Z,2.90
2023-11-09T05:06:50.164Z,3.38
2023-11-09T05:09:20.979Z,3.05
2023-11-09T05:11:48.961Z,3.20
2023-11-09T05:14:17.055Z,3.00
2023-11-09T05:16:45.050Z,3.15
2023-11-09T05:19:14.056Z,2.88
2023-11-09T05:21:41.741Z,3.17
2023-11-09T05:24:09.544Z,3.20
2023-11-09T05:26:37.965Z,3.35
2023-11-09T05:29:10.286Z,2.92
2023-11-09T05:31:39.347Z,3.40
2023-11-09T05:34:06.951Z,3.10
2023-11-09T05:36:35.783Z,3.15
2023-11-09T05:39:07.333Z,3.08
2023-11-09T05:41:35.036Z,3.40
2023-11-09T05:44:03.007Z,3.17
2023-11-09T05:46:32.050Z,2.83
2023-11-09T05:49:00.095Z,3.33
2023-11-09T05:51:29.594Z,3.28
2023-11-09T05:53:58.617Z,3.05
2023-11-09T05:56:29.072Z,3.78
2023-11-09T05:58:57.597Z,3.28
2023-11-09T06:01:26.147Z,3.75
2023-11-09T06:03:55.385Z,3.88
2023-11-09T06:06:22.947Z,4.30
2023-11-09T06:08:51.020Z,4.45
2023-11-09T06:11:18.647Z,4.45
2023-11-09T06:13:47.022Z,4.45
2023-11-09T06:16:15.524Z,4.35
2023-11-09T06:18:44.131Z,4.75
2023-11-09T06:21:11.654Z,4.63
2023-11-09T06:23:39.144Z,4.55
2023-11-09T06:26:07.170Z,4.75
2023-11-09T06:28:34.677Z,4.10
2023-11-09T06:31:05.525Z,4.68
2023-11-09T06:33:34.630Z,4.63
2023-11-09T06:36:02.904Z,5.35
2023-11-09T06:38:32.038Z,4.95
2023-11-09T06:40:59.684Z,5.28
2023-11-09T06:43:27.201Z,5.45
2023-11-09T06:45:57.401Z,5.25
2023-11-09T06:48:26.324Z,5.37
2023-11-09T06:50:55.340Z,5.50
2023-11-09T06:53:23.492Z,5.75
2023-11-09T06:55:52.602Z,5.68
2023-11-09T06:58:20.309Z,6.13
2023-11-09T07:00:48.151Z,6.40
2023-11-09T07:03:16.467Z,6.00
2023-11-09T07:05:45.757Z,7.10
2023-11-09T07:08:17.608Z,7.37
2023-11-09T07:10:50.042Z,7.38
2023-11-09T07:13:20.975Z,8.65
2023-11-09T07:15:48.574Z,8.60
2023-11-09T07:18:18.569Z,8.30
2023-11-09T07:20:50.997Z,9.60
2023-11-09T07:23:30.388Z,8.82
2023-11-09T07:25:59.889Z,9.75
2023-11-09T07:28:30.217Z,9.80
2023-11-09T07:30:58.115Z,9.45
2023-11-09T07:33:25.899Z,11.10
2023-11-09T07:35:53.517Z,10.82
2023-11-09T07:38:21.051Z,12.80
2023-11-09T07:40:52.820Z,12.95
2023-11-09T07:43:20.538Z,12.35
2023-11-09T07:45:48.111Z,12.50
2023-11-09T07:48:17.405Z,13.63
2023-11-09T07:50:47.399Z,12.88
2023-11-09T07:53:14.950Z,13.75
2023-11-09T07:55:42.670Z,13.55
2023-11-09T07:58:10.277Z,14.35
2023-11-09T08:00:37.884Z,12.68
2023-11-09T08:03:09.251Z,13.23
2023-11-09T08:05:42.633Z,13.45
2023-11-09T08:08:16.448Z,12.43
2023-11-09T08:10:53.173Z,11.90
2023-11-09T08:13:24.858Z,13.45
2023-11-09T08:16:02.797Z,13.85
2023-11-09T08:18:31.813Z,13.27
2023-11-09T08:21:01.079Z,13.35
2023-11-09T08:23:39.775Z,13.10
2023-11-09T08:26:15.192Z,13.98
2023-11-09T08:31:20.393Z,13.50
2023-11-09T08:33:49.571Z,12.88
2023-11-09T08:36:22.006Z,13.98
2023-11-09T08:38:51.243Z,14.32
2023-11-09T08:41:23.551Z,13.53
2023-11-09T08:43:54.105Z,12.35
2023-11-09T08:46:21.953Z,13.23
2023-11-09T08:48:49.700Z,13.63
2023-11-09T08:51:19.474Z,13.13
2023-11-09T08:53:50.741Z,12.18
2023-11-09T08:56:22.864Z,12.07
2023-11-09T08:58:51.560Z,12.48
2023-11-09T09:01:19.650Z,13.15
2023-11-09T09:03:55.359Z,11.35
2023-11-09T09:06:26.822Z,12.57
2023-11-09T09:08:59.265Z,12.05
2023-11-09T09:11:29.284Z,13.10
2023-11-09T09:14:05.929Z,11.30
2023-11-09T09:16:37.480Z,12.07
2023-11-09T09:19:05.215Z,12.43
2023-11-09T09:21:34.473Z,12.18
2023-11-09T09:24:04.107Z,12.38
2023-11-09T09:26:34.579Z,11.30
2023-11-09T09:29:02.663Z,12.43
2023-11-09T09:31:30.481Z,11.55
2023-11-09T09:34:11.425Z,10.98
2023-11-09T09:36:39.429Z,10.13
2023-11-09T09:39:09.692Z,9.40
2023-11-09T09:41:51.307Z,9.93
2023-11-09T09:44:20.032Z,8.60
2023-11-09T09:46:56.780Z,7.43
2023-11-09T09:49:26.846Z,7.43
2023-11-09T09:51:57.026Z,7.03
2023-11-09T09:54:25.854Z,6.43
2023-11-09T09:56:54.885Z,6.78
2023-11-09T09:59:24.272Z,5.53
2023-11-09T10:01:54.385Z,5.88
2023-11-09T10:04:24.707Z,5.40
2023-11-09T10:06:52.792Z,5.82
2023-11-09T10:09:25.827Z,5.03
2023-11-09T10:11:55.477Z,6.05
2023-11-09T10:14:25.508Z,5.82
2023-11-09T10:16:53.448Z,5.53
2023-11-09T10:19:21.099Z,5.03
2023-11-09T10:21:48.857Z,5.20
2023-11-09T10:24:17.353Z,6.47
2023-11-09T10:26:47.024Z,6.15
2023-11-09T10:29:21.146Z,5.22
2023-11-09T10:31:49.041Z,5.55
2023-11-09T10:34:17.975Z,4.55
2023-11-09T10:36:46.256Z,5.00
2023-11-09T10:39:25.197Z,4.78
2023-11-09T10:41:57.375Z,4.15
2023-11-09T10:44:31.173Z,4.65
2023-11-09T10:47:04.309Z,3.80
2023-11-09T10:49:39.017Z,4.70
2023-11-09T10:52:10.900Z,4.63
2023-11-09T10:54:43.495Z,4.30
2023-11-09T10:57:14.053Z,4.32
2023-11-09T10:59:42.836Z,5.03
2023-11-09T11:02:21.069Z,4.38
2023-11-09T11:04:51.646Z,3.55
2023-11-09T11:07:26.931Z,3.28
2023-11-09T11:09:58.285Z,3.15
2023-11-09T11:12:26.950Z,3.40
2023-11-09T11:14:57.764Z,4.13
2023-11-09T11:17:39.352Z,2.63
2023-11-09T11:20:18.966Z,2.30
2023-11-09T11:23:09.550Z,2.13
2023-11-09T11:25:46.749Z,2.17
2023-11-09T11:28:18.578Z,3.65
2023-11-09T11:30:46.483Z,2.40
2023-11-09T11:33:18.387Z,2.28
2023-11-09T11:35:56.717Z,2.83
2023-11-09T11:38:30.802Z,3.35
2023-11-09T11:41:05.861Z,2.45
2023-11-09T11:43:38.682Z,3.00
2023-11-09T11:46:13.846Z,2.83
2023-11-09T11:48:54.947Z,2.90
2023-11-09T11:51:25.469Z,2.10
2023-11-09T11:54:10.852Z,2.50
2023-11-09T11:56:39.944Z,2.15
2023-11-09T11:59:10.937Z,2.38
2023-11-09T12:01:41.430Z,2.72
2023-11-09T12:04:15.466Z,2.10
2023-11-09T12:06:48.447Z,2.20
2023-11-09T12:09:19.477Z,2.35
2023-11-09T12:11:50.766Z,1.70
2023-11-09T12:14:22.049Z,2.13
2023-11-09T12:16:50.420Z,2.40
2023-11-09T12:19:19.527Z,2.10
2023-11-09T12:21:48.416Z,2.63
2023-11-09T12:24:24.239Z,2.08
2023-11-09T12:27:10.986Z,1.88
2023-11-09T12:29:42.599Z,2.25
2023-11-09T12:32:13.253Z,2.08
2023-11-09T12:34:43.288Z,1.80
2023-11-09T12:37:16.301Z,2.13
2023-11-09T12:39:44.766Z,2.30
2023-11-09T12:42:14.924Z,1.95
2023-11-09T12:44:43.961Z,2.03
2023-11-09T12:47:13.243Z,2.20
2023-11-09T12:49:45.794Z,1.90
2023-11-09T12:52:13.811Z,2.20
2023-11-09T12:54:41.767Z,2.67
2023-11-09T12:57:09.829Z,2.30
2023-11-09T12:59:43.614Z,2.10
2023-11-09T13:02:29.854Z,3.03
2023-11-09T13:04:59.057Z,2.38
2023-11-09T13:07:28.155Z,2.55
2023-11-09T13:10:16.430Z,2.45
2023-11-09T13:12:46.807Z,2.00
2023-11-09T13:15:43.907Z,2.10
2023-11-09T13:18:14.027Z,2.08
2023-11-09T13:20:42.116Z,2.17
2023-11-09T13:23:12.883Z,2.90
2023-11-09T13:25:51.346Z,2.30
2023-11-09T13:28:19.644Z,2.20
2023-11-09T13:30:51.183Z,2.20
2023-11-09T13:33:32.997Z,2.38
2023-11-09T13:36:10.229Z,2.33
2023-11-09T13:39:12.672Z,2.50
2023-11-09T13:41:42.963Z,2.08
2023-11-09T13:44:13.083Z,2.20
2023-11-09T13:46:44.064Z,2.30
2023-11-09T13:49:28.997Z,3.08
2023-11-09T13:52:03.402Z,2.10
2023-11-09T13:54:38.025Z,2.50
2023-11-09T13:57:13.960Z,2.33
2023-11-09T13:59:56.490Z,2.45
2023-11-09T14:02:35.661Z,2.80
2023-11-09T14:05:11.297Z,2.53
2023-11-09T14:07:43.724Z,3.05
2023-11-09T14:10:16.193Z,3.10
2023-11-09T14:12:45.172Z,2.80
2023-11-09T14:15:33.310Z,3.03
2023-11-09T14:18:21.831Z,2.47
2023-11-09T14:21:06.918Z,2.72
2023-11-09T14:23:38.449Z,2.80
2023-11-09T14:28:34.985Z,3.10
2023-11-09T14:31:07.369Z,2.58
2023-11-09T14:33:37.269Z,2.10
2023-11-09T14:36:07.455Z,2.45
2023-11-09T14:38:35.474Z,3.05
2023-11-09T14:41:13.601Z,2.60
2023-11-09T14:43:41.788Z,2.22
2023-11-09T14:46:17.582Z,2.88
2023-11-09T14:48:46.528Z,2.45
2023-11-09T14:51:25.637Z,2.33
2023-11-09T14:53:53.912Z,2.47
2023-11-09T14:56:22.967Z,2.17
2023-11-09T14:58:52.159Z,2.45
2023-11-09T15:01:20.285Z,2.08
2023-11-09T15:03:47.970Z,2.50
2023-11-09T15:06:21.969Z,2.47
2023-11-09T15:08:50.215Z,2.58
2023-11-09T15:11:21.854Z,1.95
2023-11-09T15:13:50.779Z,2.20
2023-11-09T15:16:21.202Z,2.40
2023-11-09T15:18:51.726Z,2.70
2023-11-09T15:21:22.881Z,2.92
2023-11-09T15:23:50.723Z,3.17
2023-11-09T15:26:19.907Z,2.50
2023-11-09T15:28:49.307Z,2.38
2023-11-09T15:31:17.112Z,2.20
2023-11-09T15:33:44.755Z,2.40
2023-11-09T15:36:12.335Z,2.40
2023-11-09T15:38:40.595Z,2.53
2023-11-09T15:41:19.502Z,2.50
2023-11-09T15:43:52.844Z,2.10
2023-11-09T15:46:21.300Z,2.40
2023-11-09T15:48:50.212Z,2.03
2023-11-09T15:51:18.101Z,1.90
2023-11-09T15:53:45.912Z,2.55
2023-11-09T15:56:16.172Z,2.47
2023-11-09T15:58:44.062Z,2.65
2023-11-09T16:01:15.226Z,2.78
2023-11-09T16:03:46.104Z,2.08
2023-11-09T16:06:14.214Z,1.88
2023-11-09T16:08:42.968Z,2.70
2023-11-09T16:11:11.022Z,2.30
2023-11-09T16:13:39.200Z,2.13
2023-11-09T16:16:07.384Z,2.25
2023-11-09T16:18:35.299Z,2.30
2023-11-09T16:21:02.973Z,2.13
2023-11-09T16:23:32.523Z,1.98
2023-11-09T16:26:01.262Z,2.50
2023-11-09T16:28:32.536Z,2.20
2023-11-09T16:31:07.738Z,2.40
2023-11-09T16:33:36.512Z,2.00
2023-11-09T16:36:04.578Z,1.92
2023-11-09T16:38:32.712Z,2.35
2023-11-09T16:41:01.243Z,2.70
2023-11-09T16:43:29.196Z,1.83
2023-11-09T16:45:57.043Z,2.22
2023-11-09T16:48:24.814Z,2.38
2023-11-09T16:50:52.454Z,2.17
2023-11-09T16:53:20.648Z,1.85
2023-11-09T16:55:48.346Z,1.55
2023-11-09T16:58:16.067Z,1.92
2023-11-09T17:00:43.822Z,1.70
2023-11-09T17:03:11.572Z,2.13
2023-11-09T17:05:40.791Z,1.73
2023-11-09T17:08:10.310Z,2.13
2023-11-09T17:10:39.044Z,2.00
2023-11-09T17:13:06.687Z,1.00
2023-11-09T17:15:34.232Z,0.90
2023-11-09T17:18:01.810Z,1.15
2023-11-09T17:20:29.413Z,0.70
2023-11-09T17:22:58.666Z,0.40
2023-11-09T17:25:29.835Z,0.40
2023-11-09T17:27:57.870Z,0.60
2023-11-09T17:30:25.687Z,0.63
2023-11-09T17:32:55.562Z,2.83
2023-11-09T17:35:27.221Z,5.82
2023-11-09T17:37:55.316Z,2.60
2023-11-09T17:40:23.999Z,2.50
2023-11-09T17:42:51.643Z,4.20
2023-11-09T17:45:19.654Z,4.13
2023-11-09T17:47:48.081Z,1.50
2023-11-09T17:50:18.298Z,1.48
2023-11-09T17:52:48.373Z,0.80
2023-11-09T17:55:16.616Z,0.80
2023-11-09T17:57:44.526Z,0.40
2023-11-09T18:00:15.672Z,0.50
2023-11-09T18:02:45.010Z,0.70
2023-11-09T18:05:13.983Z,0.50
2023-11-09T18:07:41.840Z,0.47
2023-11-09T18:10:09.884Z,0.50
2023-11-09T18:12:37.487Z,0.75
2023-11-09T18:15:06.409Z,4.85
2023-11-09T18:17:35.762Z,1.35
2023-11-09T18:20:07.228Z,1.05
2023-11-09T18:22:35.212Z,0.70
2023-11-09T18:25:03.699Z,1.10
2023-11-09T18:27:32.552Z,1.10
2023-11-09T18:30:00.574Z,0.40
2023-11-09T18:32:28.653Z,0.30
2023-11-09T18:34:56.912Z,0.40
2023-11-09T18:37:24.978Z,0.20
2023-11-09T18:39:52.569Z,0.40
2023-11-09T18:42:20.401Z,0.40
2023-11-09T18:44:47.997Z,0.30
2023-11-09T18:47:15.505Z,0.35
2023-11-09T18:52:13.887Z,0.67
2023-11-09T18:54:41.573Z,0.40
2023-11-09T18:57:10.556Z,0.30
2023-11-09T18:59:38.184Z,1.23
2023-11-09T19:02:07.858Z,16.73
2023-11-09T19:07:06.222Z,3.15
2023-11-09T19:09:33.845Z,0.93
2023-11-09T19:12:04.222Z,1.73
2023-11-09T19:14:32.231Z,2.88
2023-11-09T19:17:00.639Z,1.02
2023-11-09T19:19:28.349Z,0.82
2023-11-09T19:24:27.150Z,0.88
2023-11-09T19:26:55.157Z,0.80
2023-11-09T19:29:22.807Z,1.00
2023-11-09T19:31:50.429Z,0.63
2023-11-09T19:34:18.332Z,0.82
2023-11-09T19:36:46.884Z,0.93
2023-11-09T19:39:17.214Z,0.80
2023-11-09T19:41:44.871Z,0.70
2023-11-09T19:44:13.581Z,1.00
2023-11-09T19:46:41.449Z,1.30
2023-11-09T19:49:10.262Z,1.52
2023-11-09T19:51:38.010Z,1.20
2023-11-09T19:54:08.707Z,1.10
2023-11-09T19:56:36.373Z,1.50
2023-11-09T19:59:04.150Z,1.70
2023-11-09T20:01:33.554Z,1.30
2023-11-09T20:04:01.385Z,3.63
2023-11-09T20:06:29.491Z,1.80
2023-11-09T20:08:59.399Z,1.30
2023-11-09T20:11:28.036Z,1.50
2023-11-09T20:13:55.697Z,1.55
2023-11-09T20:16:23.326Z,1.88
2023-11-09T20:18:50.957Z,1.30
2023-11-09T20:21:20.667Z,1.77
2023-11-09T20:23:48.346Z,1.60
2023-11-09T20:26:19.566Z,2.03
2023-11-09T20:28:48.829Z,2.22
2023-11-09T20:31:16.336Z,1.75
2023-11-09T20:33:45.984Z,1.50
2023-11-09T20:36:14.709Z,2.15
2023-11-09T20:38:42.438Z,1.60
2023-11-09T20:41:10.580Z,1.83
2023-11-09T20:43:40.135Z,1.95
2023-11-09T20:46:10.823Z,2.10
2023-11-09T20:48:38.562Z,1.98
2023-11-09T20:51:09.289Z,2.00
2023-11-09T20:53:37.095Z,2.07
2023-11-09T20:56:08.930Z,1.63
2023-11-09T20:58:39.291Z,1.80
2023-11-09T21:01:06.972Z,1.83
2023-11-09T21:03:40.801Z,2.08
2023-11-09T21:06:11.842Z,1.60
2023-11-09T21:08:39.952Z,1.60
2023-11-09T21:11:07.541Z,1.67
2023-11-09T21:13:37.251Z,2.13
2023-11-09T21:16:05.581Z,2.00
2023-11-09T21:18:33.216Z,1.92
2023-11-09T21:21:01.169Z,2.00
2023-11-09T21:23:29.161Z,1.70
2023-11-09T21:25:56.717Z,2.05
2023-11-09T21:28:24.275Z,2.00
2023-11-09T21:30:52.442Z,1.83
2023-11-09T21:33:20.429Z,2.45
2023-11-09T21:35:49.531Z,2.20
2023-11-09T21:38:17.313Z,2.25
2023-11-09T21:40:45.008Z,2.10
2023-11-09T21:43:15.695Z,2.10
2023-11-09T21:45:44.310Z,2.37
2023-11-09T21:48:12.299Z,2.78
2023-11-09T21:50:39.946Z,2.28
2023-11-09T21:53:13.994Z,2.50
2023-11-09T21:55:43.002Z,2.22
2023-11-09T21:58:10.579Z,3.15
2023-11-09T22:00:38.409Z,2.58
2023-11-09T22:03:06.774Z,2.88
2023-11-09T22:05:34.453Z,2.47
2023-11-09T22:08:05.688Z,2.10
2023-11-09T22:10:34.180Z,2.35
2023-11-09T22:13:01.923Z,2.28
2023-11-09T22:15:32.526Z,2.30
2023-11-09T22:18:01.761Z,1.88
2023-11-09T22:20:29.427Z,2.17
2023-11-09T22:22:56.992Z,2.10
2023-11-09T22:25:24.790Z,2.05
2023-11-09T22:27:52.300Z,1.80
2023-11-09T22:30:20.630Z,2.15
2023-11-09T22:32:48.374Z,1.55
2023-11-09T22:35:16.196Z,1.80
2023-11-09T22:37:43.905Z,2.00
2023-11-09T22:40:12.342Z,1.70
2023-11-09T22:42:40.252Z,2.25
2023-11-09T22:45:09.547Z,1.90
2023-11-09T22:47:37.255Z,1.70
2023-11-09T22:50:05.707Z,1.77
2023-11-09T22:52:37.992Z,1.60
2023-11-09T22:55:09.652Z,1.40
2023-11-09T22:57:37.787Z,1.70
2023-11-09T23:00:19.368Z,1.73
2023-11-09T23:05:14.691Z,1.90
2023-11-09T23:07:44.086Z,1.77
2023-11-09T23:10:15.089Z,1.92
2023-11-09T23:12:43.190Z,1.85
2023-11-09T23:15:15.289Z,2.22
2023-11-09T23:17:46.780Z,2.00
2023-11-09T23:20:15.496Z,2.08
2023-11-09T23:22:44.501Z,1.65
2023-11-09T23:25:13.000Z,1.77
2023-11-09T23:27:40.756Z,1.65
2023-11-09T23:30:10.631Z,1.30
2023-11-09T23:32:38.339Z,1.30
2023-11-09T23:35:07.165Z,1.55
2023-11-09T23:37:35.053Z,1.58
2023-11-09T23:40:06.598Z,1.60
2023-11-09T23:45:02.291Z,1.27
2023-11-09T23:47:30.077Z,1.70
2023-11-09T23:49:57.608Z,1.33
2023-11-09T23:52:25.387Z,1.70
2023-11-09T23:54:52.929Z,1.25
2023-11-09T23:57:20.557Z,1.88
2023-11-09T23:59:48.622Z,1.40
